createdAt,value
2018-04-26T00:01:59.448Z,99.90
2018-04-26T00:04:25.565Z,99.90
2018-04-26T00:06:52.510Z,99.90
2018-04-26T00:09:18.638Z,99.90
2018-04-26T00:11:45.563Z,99.90
2018-04-26T00:14:12.479Z,99.90
2018-04-26T00:16:38.659Z,99.90
2018-04-26T00:19:04.888Z,99.90
2018-04-26T00:21:31.017Z,99.90
2018-04-26T00:23:57.154Z,99.90
2018-04-26T00:26:23.355Z,99.90
2018-04-26T00:28:50.285Z,99.90
2018-04-26T00:31:17.228Z,99.90
2018-04-26T00:33:44.119Z,99.90
2018-04-26T00:36:10.293Z,99.90
2018-04-26T00:38:36.488Z,99.90
2018-04-26T00:41:02.630Z,99.90
2018-04-26T00:43:28.918Z,99.90
2018-04-26T00:45:55.047Z,99.90
2018-04-26T00:48:21.197Z,99.90
2018-04-26T00:50:47.342Z,99.90
2018-04-26T00:53:13.454Z,99.90
2018-04-26T00:55:39.625Z,99.90
2018-04-26T00:58:06.569Z,99.90
2018-04-26T01:00:33.482Z,99.90
2018-04-26T01:02:59.618Z,99.90
2018-04-26T01:05:25.804Z,99.90
2018-04-26T01:07:51.988Z,99.90
2018-04-26T01:10:18.911Z,99.90
2018-04-26T01:12:45.111Z,99.90
2018-04-26T01:15:11.297Z,99.90
2018-04-26T01:17:38.207Z,99.90
2018-04-26T01:20:04.423Z,99.90
2018-04-26T01:22:30.607Z,99.90
2018-04-26T01:24:56.775Z,99.90
2018-04-26T01:27:22.992Z,99.90
2018-04-26T01:29:49.116Z,99.90
2018-04-26T01:32:15.242Z,99.90
2018-04-26T01:34:41.417Z,99.90
2018-04-26T01:37:20.862Z,99.90
2018-04-26T01:39:54.795Z,99.90
2018-04-26T01:42:20.942Z,99.90
2018-04-26T01:44:47.125Z,99.90
2018-04-26T01:47:14.127Z,99.90
2018-04-26T01:49:40.292Z,99.90
2018-04-26T01:52:07.187Z,99.90
2018-04-26T01:54:33.382Z,99.90
2018-04-26T01:56:59.525Z,99.90
2018-04-26T01:59:25.683Z,99.90
2018-04-26T02:01:51.843Z,99.90
2018-04-26T02:04:18.728Z,99.90
2018-04-26T02:06:44.894Z,99.90
2018-04-26T02:09:11.027Z,99.90
2018-04-26T02:11:37.178Z,99.90
2018-04-26T02:14:04.110Z,99.90
2018-04-26T02:16:31.035Z,99.90
2018-04-26T02:18:57.235Z,99.90
2018-04-26T02:21:23.380Z,99.90
2018-04-26T02:23:49.651Z,99.90
2018-04-26T02:26:16.581Z,99.90
2018-04-26T02:28:42.735Z,99.90
2018-04-26T02:31:08.915Z,99.90
2018-04-26T02:33:35.065Z,99.90
2018-04-26T02:36:01.975Z,99.90
2018-04-26T02:38:28.155Z,99.90
2018-04-26T02:40:55.084Z,99.90
2018-04-26T02:43:21.951Z,99.90
2018-04-26T02:45:48.240Z,99.90
2018-04-26T02:48:15.066Z,99.90
2018-04-26T02:50:41.243Z,99.90
2018-04-26T02:53:08.154Z,99.90
2018-04-26T02:55:34.307Z,99.90
2018-04-26T02:58:01.181Z,99.90
2018-04-26T03:00:27.355Z,99.90
2018-04-26T03:02:53.491Z,99.90
2018-04-26T03:05:20.324Z,99.90
2018-04-26T03:07:46.509Z,99.90
2018-04-26T03:10:12.622Z,99.90
2018-04-26T03:12:38.752Z,99.90
2018-04-26T03:15:04.888Z,99.90
2018-04-26T03:17:31.017Z,99.90
2018-04-26T03:19:57.264Z,99.90
2018-04-26T03:22:23.431Z,99.90
2018-04-26T03:24:50.324Z,99.90
2018-04-26T03:27:16.487Z,99.90
2018-04-26T03:29:42.667Z,99.90
2018-04-26T03:32:08.826Z,99.90
2018-04-26T03:34:34.940Z,99.90
2018-04-26T03:37:01.124Z,99.90
2018-04-26T03:39:27.280Z,99.90
2018-04-26T03:41:53.434Z,99.90
2018-04-26T03:44:19.570Z,99.90
2018-04-26T03:46:45.782Z,99.90
2018-04-26T03:49:11.924Z,99.90
2018-04-26T03:51:38.014Z,99.90
2018-04-26T03:54:04.178Z,99.90
2018-04-26T03:56:31.117Z,99.90
2018-04-26T03:58:57.330Z,99.90
2018-04-26T04:01:35.967Z,99.90
2018-04-26T04:04:14.486Z,99.90
2018-04-26T04:06:40.638Z,99.90
2018-04-26T04:09:06.836Z,99.90
2018-04-26T04:11:32.968Z,99.90
2018-04-26T04:14:01.904Z,99.90
2018-04-26T04:16:28.080Z,99.90
2018-04-26T04:18:54.212Z,99.90
2018-04-26T04:21:20.411Z,99.90
2018-04-26T04:23:46.551Z,99.90
2018-04-26T04:26:12.707Z,99.90
2018-04-26T04:28:39.694Z,99.90
2018-04-26T04:31:05.905Z,99.90
2018-04-26T04:33:32.045Z,99.90
2018-04-26T04:35:58.216Z,99.90
2018-04-26T04:38:24.408Z,99.90
2018-04-26T04:40:50.565Z,99.90
2018-04-26T04:43:16.712Z,99.90
2018-04-26T04:45:43.984Z,99.90
2018-04-26T04:48:10.184Z,99.90
2018-04-26T04:50:37.054Z,99.90
2018-04-26T04:53:03.230Z,99.90
2018-04-26T04:55:29.418Z,99.90
2018-04-26T04:57:55.596Z,99.90
2018-04-26T05:00:21.710Z,99.90
2018-04-26T05:02:47.855Z,99.90
2018-04-26T05:05:25.943Z,99.90
2018-04-26T05:07:52.127Z,99.90
2018-04-26T05:10:21.713Z,99.90
2018-04-26T05:12:49.651Z,99.90
2018-04-26T05:15:15.846Z,99.90
2018-04-26T05:17:41.957Z,99.90
2018-04-26T05:20:08.157Z,99.90
2018-04-26T05:22:35.118Z,99.90
2018-04-26T05:25:01.997Z,99.90
2018-04-26T05:27:28.151Z,99.90
2018-04-26T05:29:54.389Z,99.90
2018-04-26T05:32:21.180Z,99.90
2018-04-26T05:34:47.364Z,99.90
2018-04-26T05:37:13.563Z,99.90
2018-04-26T05:39:39.711Z,99.90
2018-04-26T05:42:05.883Z,99.90
2018-04-26T05:44:32.058Z,99.90
2018-04-26T05:46:58.239Z,99.90
2018-04-26T05:49:24.408Z,99.90
2018-04-26T05:51:50.603Z,99.90
2018-04-26T05:54:16.765Z,99.90
2018-04-26T05:56:42.934Z,99.90
2018-04-26T05:59:09.115Z,99.90
2018-04-26T06:01:35.343Z,99.90
2018-04-26T06:04:01.472Z,99.90
2018-04-26T06:06:27.702Z,99.90
2018-04-26T06:08:53.924Z,99.90
2018-04-26T06:11:20.230Z,99.90
2018-04-26T06:13:47.141Z,99.90
2018-04-26T06:16:14.104Z,99.90
2018-04-26T06:18:40.256Z,99.90
2018-04-26T06:21:06.423Z,99.90
2018-04-26T06:23:39.625Z,99.90
2018-04-26T06:26:06.520Z,99.90
2018-04-26T06:28:32.707Z,99.90
2018-04-26T06:30:58.887Z,99.90
2018-04-26T06:33:25.035Z,99.90
2018-04-26T06:35:51.200Z,99.90
2018-04-26T06:38:17.366Z,99.90
2018-04-26T06:40:43.520Z,99.90
2018-04-26T06:43:09.639Z,99.90
2018-04-26T06:45:35.836Z,99.90
2018-04-26T06:48:02.040Z,99.90
2018-04-26T06:50:28.224Z,99.90
2018-04-26T06:52:54.414Z,99.90
2018-04-26T06:55:20.569Z,99.90
2018-04-26T06:57:46.710Z,99.90
2018-04-26T07:00:13.645Z,99.90
2018-04-26T07:02:39.823Z,99.90
2018-04-26T07:05:06.019Z,99.90
2018-04-26T07:07:32.913Z,99.90
2018-04-26T07:09:59.096Z,99.90
2018-04-26T07:12:26.031Z,99.90
2018-04-26T07:14:52.915Z,99.90
2018-04-26T07:17:19.090Z,99.90
2018-04-26T07:19:45.285Z,99.90
2018-04-26T07:22:11.453Z,99.90
2018-04-26T07:24:38.385Z,99.90
2018-04-26T07:27:04.513Z,99.90
2018-04-26T07:29:30.694Z,99.90
2018-04-26T07:31:56.842Z,99.90
2018-04-26T07:34:23.023Z,99.90
2018-04-26T07:36:49.184Z,99.90
2018-04-26T07:39:15.304Z,99.90
2018-04-26T07:41:41.486Z,99.90
2018-04-26T07:44:08.403Z,99.90
2018-04-26T07:46:34.576Z,99.90
2018-04-26T07:49:01.518Z,99.90
2018-04-26T07:51:27.735Z,99.90
2018-04-26T07:53:54.665Z,99.90
2018-04-26T07:56:20.872Z,99.90
2018-04-26T07:58:47.047Z,99.90
2018-04-26T08:01:13.207Z,99.90
2018-04-26T08:03:39.365Z,99.90
2018-04-26T08:06:05.504Z,99.90
2018-04-26T08:08:32.403Z,99.90
2018-04-26T08:10:58.657Z,99.90
2018-04-26T08:13:24.839Z,99.90
2018-04-26T08:15:51.035Z,99.90
2018-04-26T08:18:17.977Z,99.90
2018-04-26T08:20:44.900Z,99.90
2018-04-26T08:23:11.092Z,99.90
2018-04-26T08:25:37.295Z,99.90
2018-04-26T08:28:04.254Z,99.90
2018-04-26T08:30:30.465Z,99.90
2018-04-26T08:32:56.568Z,99.90
2018-04-26T08:35:22.722Z,99.90
2018-04-26T08:37:49.647Z,99.90
2018-04-26T08:40:16.591Z,99.90
2018-04-26T08:42:42.743Z,99.90
2018-04-26T08:45:08.951Z,99.90
2018-04-26T08:47:35.872Z,99.90
2018-04-26T08:50:02.162Z,99.90
2018-04-26T08:52:28.335Z,99.90
2018-04-26T08:54:54.511Z,99.90
2018-04-26T08:57:20.711Z,99.90
2018-04-26T08:59:46.965Z,99.90
2018-04-26T09:02:13.194Z,99.90
2018-04-26T09:04:39.390Z,99.90
2018-04-26T09:07:06.333Z,99.90
2018-04-26T09:09:32.610Z,99.90
2018-04-26T09:11:58.756Z,99.90
2018-04-26T09:14:24.951Z,99.90
2018-04-26T09:16:51.093Z,99.90
2018-04-26T09:19:17.295Z,99.90
2018-04-26T09:21:43.527Z,99.90
2018-04-26T09:24:09.764Z,99.90
2018-04-26T09:26:35.915Z,99.90
2018-04-26T09:29:02.087Z,99.90
2018-04-26T09:31:28.975Z,99.90
2018-04-26T09:33:55.112Z,99.90
2018-04-26T09:36:21.232Z,99.90
2018-04-26T09:38:47.401Z,99.90
2018-04-26T09:41:13.579Z,99.90
2018-04-26T09:43:39.771Z,99.90
2018-04-26T09:46:06.685Z,99.90
2018-04-26T09:48:32.937Z,99.90
2018-04-26T09:50:59.118Z,99.90
2018-04-26T09:53:25.247Z,99.90
2018-04-26T09:55:51.343Z,99.90
2018-04-26T09:58:17.522Z,99.90
2018-04-26T10:00:43.693Z,99.90
2018-04-26T10:03:09.906Z,99.90
2018-04-26T10:05:40.884Z,99.90
2018-04-26T10:08:07.158Z,99.90
2018-04-26T10:10:34.066Z,99.90
2018-04-26T10:13:00.211Z,99.90
2018-04-26T10:15:26.428Z,99.90
2018-04-26T10:17:52.558Z,99.90
2018-04-26T10:20:18.742Z,99.90
2018-04-26T10:22:44.907Z,99.90
2018-04-26T10:25:11.051Z,99.90
2018-04-26T10:27:37.256Z,99.90
2018-04-26T10:30:03.570Z,99.90
2018-04-26T10:32:29.681Z,99.90
2018-04-26T10:34:55.862Z,99.90
2018-04-26T10:37:23.598Z,99.90
2018-04-26T10:39:49.760Z,99.90
2018-04-26T10:42:15.965Z,99.90
2018-04-26T10:44:42.132Z,99.90
2018-04-26T10:47:09.028Z,99.90
2018-04-26T10:49:35.188Z,99.90
2018-04-26T10:52:02.210Z,99.90
2018-04-26T10:54:29.172Z,99.90
2018-04-26T10:56:55.299Z,99.90
2018-04-26T10:59:21.435Z,99.90
2018-04-26T11:01:47.608Z,99.90
2018-04-26T11:04:13.772Z,99.90
2018-04-26T11:06:39.984Z,99.90
2018-04-26T11:09:06.254Z,99.90
2018-04-26T11:11:33.272Z,99.90
2018-04-26T11:13:59.375Z,99.90
2018-04-26T11:16:25.663Z,99.90
2018-04-26T11:18:52.668Z,99.90
2018-04-26T11:21:18.788Z,99.90
2018-04-26T11:23:45.053Z,99.90
2018-04-26T11:26:11.303Z,99.90
2018-04-26T11:28:38.261Z,99.90
2018-04-26T11:31:04.567Z,99.90
2018-04-26T11:33:30.810Z,99.90
2018-04-26T11:35:57.027Z,99.90
2018-04-26T11:38:23.978Z,99.90
2018-04-26T11:40:50.283Z,99.90
2018-04-26T11:43:17.220Z,99.90
2018-04-26T11:45:46.576Z,99.90
2018-04-26T11:48:12.832Z,99.90
2018-04-26T11:50:39.225Z,99.90
2018-04-26T11:53:05.624Z,98.10
2018-04-26T11:55:32.597Z,99.10
2018-04-26T11:57:58.751Z,99.20
2018-04-26T12:00:25.090Z,99.90
2018-04-26T12:02:51.377Z,99.80
2018-04-26T12:05:17.510Z,99.90
2018-04-26T12:07:43.746Z,99.90
2018-04-26T12:10:10.638Z,99.90
2018-04-26T12:12:36.787Z,99.90
2018-04-26T12:15:03.644Z,99.90
2018-04-26T12:17:30.574Z,99.90
2018-04-26T12:19:57.506Z,99.90
2018-04-26T12:22:23.684Z,99.90
2018-04-26T12:24:49.816Z,99.90
2018-04-26T12:27:15.997Z,99.40
2018-04-26T12:29:42.943Z,93.60
2018-04-26T12:32:09.840Z,94.20
2018-04-26T12:34:36.033Z,94.20
2018-04-26T12:37:02.266Z,96.40
2018-04-26T12:39:28.430Z,94.00
2018-04-26T12:41:54.548Z,95.10
2018-04-26T12:44:20.742Z,94.90
2018-04-26T12:46:47.605Z,95.30
2018-04-26T12:49:13.813Z,95.30
2018-04-26T12:51:40.692Z,97.30
2018-04-26T12:54:06.916Z,97.20
2018-04-26T12:56:33.103Z,95.90
2018-04-26T12:59:00.009Z,96.40
2018-04-26T13:01:26.143Z,96.40
2018-04-26T13:03:52.307Z,95.40
2018-04-26T13:06:19.226Z,93.30
2018-04-26T13:08:45.366Z,93.30
2018-04-26T13:11:12.242Z,90.40
2018-04-26T13:13:38.363Z,90.20
2018-04-26T13:16:04.522Z,91.10
2018-04-26T13:18:30.694Z,88.20
2018-04-26T13:20:57.595Z,92.00
2018-04-26T13:23:23.812Z,92.00
2018-04-26T13:25:49.970Z,91.60
2018-04-26T13:28:16.126Z,88.60
2018-04-26T13:30:43.079Z,90.20
2018-04-26T13:33:09.243Z,90.20
2018-04-26T13:35:35.692Z,90.10
2018-04-26T13:38:01.807Z,89.30
2018-04-26T13:40:27.942Z,88.80
2018-04-26T13:42:54.061Z,91.00
2018-04-26T13:45:20.170Z,91.90
2018-04-26T13:47:46.359Z,90.40
2018-04-26T13:50:13.243Z,90.00
2018-04-26T13:52:39.396Z,90.10
2018-04-26T13:55:05.539Z,90.40
2018-04-26T13:57:31.726Z,91.20
2018-04-26T13:59:57.895Z,90.50
2018-04-26T14:02:24.765Z,89.60
2018-04-26T14:04:50.950Z,89.40
2018-04-26T14:07:17.133Z,85.50
2018-04-26T14:09:43.332Z,87.20
2018-04-26T14:12:10.250Z,87.80
2018-04-26T14:14:36.425Z,87.70
2018-04-26T14:17:02.548Z,82.80
2018-04-26T14:19:28.691Z,82.20
2018-04-26T14:21:54.882Z,83.10
2018-04-26T14:24:21.015Z,84.40
2018-04-26T14:26:47.948Z,81.10
2018-04-26T14:29:14.798Z,83.80
2018-04-26T14:31:41.759Z,84.10
2018-04-26T14:34:07.910Z,84.00
2018-04-26T14:36:34.037Z,79.60
2018-04-26T14:39:00.234Z,80.40
2018-04-26T14:41:26.422Z,82.90
2018-04-26T14:43:52.603Z,84.80
2018-04-26T14:46:18.763Z,85.10
2018-04-26T14:48:44.990Z,81.50
2018-04-26T14:51:11.961Z,80.30
2018-04-26T14:53:38.958Z,78.60
2018-04-26T14:56:05.162Z,78.60
2018-04-26T14:58:31.355Z,80.90
2018-04-26T15:00:57.552Z,79.10
2018-04-26T15:03:23.768Z,81.90
2018-04-26T15:05:49.911Z,80.10
2018-04-26T15:08:16.050Z,80.80
2018-04-26T15:10:42.319Z,80.50
2018-04-26T15:13:09.251Z,81.40
2018-04-26T15:15:36.142Z,81.20
2018-04-26T15:18:02.309Z,81.30
2018-04-26T15:20:28.516Z,80.70
2018-04-26T15:22:54.792Z,78.60
2018-04-26T15:25:21.711Z,79.70
2018-04-26T15:27:47.887Z,79.60
2018-04-26T15:30:14.123Z,77.50
2018-04-26T15:32:47.168Z,77.80
2018-04-26T15:35:13.333Z,78.50
2018-04-26T15:37:39.517Z,76.80
2018-04-26T15:40:05.696Z,78.70
2018-04-26T15:42:31.871Z,83.30
2018-04-26T15:44:58.087Z,83.80
2018-04-26T15:47:24.250Z,86.90
2018-04-26T15:49:51.210Z,83.60
2018-04-26T15:52:29.915Z,83.60
2018-04-26T15:55:08.839Z,82.40
2018-04-26T15:58:00.293Z,86.10
2018-04-26T16:04:04.085Z,85.00
2018-04-26T16:06:43.253Z,87.10
2018-04-26T16:09:21.630Z,87.10
2018-04-26T16:12:00.844Z,85.30
2018-04-26T16:14:39.420Z,85.30
2018-04-26T16:17:25.991Z,85.40
2018-04-26T16:20:11.726Z,85.40
2018-04-26T16:22:56.584Z,85.50
2018-04-26T16:25:35.163Z,84.90
2018-04-26T16:28:19.887Z,85.00
2018-04-26T16:31:15.211Z,82.10
2018-04-26T16:33:53.655Z,82.90
2018-04-26T16:36:32.318Z,83.60
2018-04-26T16:39:07.792Z,82.30
2018-04-26T16:41:33.969Z,84.80
2018-04-26T16:44:00.186Z,84.40
2018-04-26T16:46:26.384Z,86.90
2018-04-26T16:48:53.288Z,84.80
2018-04-26T16:51:19.412Z,84.80
2018-04-26T16:53:45.521Z,85.30
2018-04-26T16:56:11.765Z,86.00
2018-04-26T16:58:37.947Z,86.40
2018-04-26T17:01:04.941Z,87.10
2018-04-26T17:03:31.118Z,87.10
2018-04-26T17:05:57.993Z,88.20
2018-04-26T17:08:24.282Z,88.30
2018-04-26T17:10:51.225Z,89.70
2018-04-26T17:13:18.133Z,88.90
2018-04-26T17:15:44.355Z,88.80
2018-04-26T17:18:11.219Z,88.80
2018-04-26T17:20:38.130Z,88.30
2018-04-26T17:23:04.315Z,88.30
2018-04-26T17:25:31.232Z,89.80
2018-04-26T17:27:57.567Z,89.80
2018-04-26T17:30:23.707Z,89.80
2018-04-26T17:32:49.906Z,91.50
2018-04-26T17:35:16.050Z,91.30
2018-04-26T17:37:42.298Z,91.30
2018-04-26T17:40:09.232Z,91.90
2018-04-26T17:42:35.951Z,91.80
2018-04-26T17:45:02.206Z,90.60
2018-04-26T17:47:28.519Z,90.60
2018-04-26T17:49:54.706Z,90.60
2018-04-26T17:52:20.943Z,90.90
2018-04-26T17:54:47.079Z,91.20
2018-04-26T17:57:13.292Z,91.10
2018-04-26T17:59:39.496Z,90.90
2018-04-26T18:02:06.440Z,92.00
2018-04-26T18:04:32.603Z,92.00
2018-04-26T18:06:58.798Z,92.10
2018-04-26T18:09:25.144Z,92.20
2018-04-26T18:11:51.308Z,93.30
2018-04-26T18:14:17.499Z,93.50
2018-04-26T18:16:43.652Z,94.10
2018-04-26T18:19:09.820Z,94.10
2018-04-26T18:21:36.722Z,94.30
2018-04-26T18:24:02.954Z,94.30
2018-04-26T18:26:29.161Z,94.50
2018-04-26T18:28:55.418Z,94.60
2018-04-26T18:31:21.560Z,95.30
2018-04-26T18:33:47.760Z,95.60
2018-04-26T18:36:13.935Z,95.40
2018-04-26T18:38:40.895Z,96.20
2018-04-26T18:41:07.055Z,96.20
2018-04-26T18:43:33.280Z,97.30
2018-04-26T18:45:59.521Z,98.00
2018-04-26T18:48:25.703Z,98.00
2018-04-26T18:50:52.622Z,97.90
2018-04-26T18:53:18.827Z,97.90
2018-04-26T18:55:45.026Z,98.30
2018-04-26T18:58:11.226Z,99.30
2018-04-26T19:00:37.462Z,99.90
2018-04-26T19:03:03.678Z,99.90
2018-04-26T19:05:30.644Z,99.90
2018-04-26T19:07:56.819Z,99.90
2018-04-26T19:10:23.064Z,99.90
2018-04-26T19:12:49.981Z,99.90
2018-04-26T19:15:16.121Z,99.90
2018-04-26T19:17:42.320Z,99.90
2018-04-26T19:20:08.527Z,99.90
2018-04-26T19:22:34.730Z,99.90
2018-04-26T19:25:01.667Z,99.90
2018-04-26T19:27:27.879Z,99.90
2018-04-26T19:29:54.074Z,99.90
2018-04-26T19:32:20.201Z,99.90
2018-04-26T19:34:46.345Z,99.90
2018-04-26T19:37:12.492Z,99.90
2018-04-26T19:39:38.666Z,99.90
2018-04-26T19:42:04.870Z,99.90
2018-04-26T19:44:31.791Z,99.90
2018-04-26T19:46:58.374Z,99.90
2018-04-26T19:49:25.479Z,99.90
2018-04-26T19:51:52.632Z,99.90
2018-04-26T19:54:19.442Z,99.90
2018-04-26T19:56:47.098Z,99.90
2018-04-26T19:59:15.296Z,99.90
2018-04-26T20:01:43.172Z,99.90
2018-04-26T20:04:10.298Z,99.90
2018-04-26T20:06:36.522Z,99.90
2018-04-26T20:09:02.755Z,99.90
2018-04-26T20:11:28.989Z,99.90
2018-04-26T20:13:55.232Z,99.90
2018-04-26T20:16:21.476Z,99.90
2018-04-26T20:18:47.695Z,99.90
2018-04-26T20:21:13.957Z,99.90
2018-04-26T20:23:40.034Z,99.90
2018-04-26T20:26:06.204Z,99.90
2018-04-26T20:28:33.101Z,99.90
2018-04-26T20:30:59.290Z,99.90
2018-04-26T20:33:25.473Z,99.90
2018-04-26T20:35:51.646Z,99.90
2018-04-26T20:38:17.878Z,99.90
2018-04-26T20:40:44.060Z,99.90
2018-04-26T20:43:10.221Z,99.90
2018-04-26T20:45:36.416Z,99.90
2018-04-26T20:48:03.280Z,99.90
2018-04-26T20:50:30.283Z,99.90
2018-04-26T20:52:56.389Z,99.90
2018-04-26T20:55:22.556Z,99.90
2018-04-26T20:57:48.682Z,99.90
2018-04-26T21:00:14.883Z,99.90
2018-04-26T21:02:41.050Z,99.90
2018-04-26T21:05:07.991Z,99.90
2018-04-26T21:07:34.935Z,99.90
2018-04-26T21:10:01.904Z,99.90
2018-04-26T21:12:28.032Z,99.90
2018-04-26T21:14:54.242Z,99.90
2018-04-26T21:17:21.222Z,99.90
2018-04-26T21:19:47.423Z,99.90
2018-04-26T21:22:14.304Z,99.90
2018-04-26T21:24:40.520Z,99.90
2018-04-26T21:27:06.710Z,99.90
2018-04-26T21:29:33.637Z,99.90
2018-04-26T21:31:59.767Z,99.90
2018-04-26T21:34:25.901Z,99.90
2018-04-26T21:36:52.077Z,99.90
2018-04-26T21:39:18.228Z,99.90
2018-04-26T21:41:44.412Z,99.90
2018-04-26T21:44:10.556Z,99.90
2018-04-26T21:46:36.683Z,99.90
2018-04-26T21:49:02.891Z,99.90
2018-04-26T21:51:35.078Z,99.90
2018-04-26T21:54:07.381Z,99.90
2018-04-26T21:56:39.674Z,99.90
2018-04-26T21:59:12.858Z,99.90
2018-04-26T22:01:44.958Z,99.90
2018-04-26T22:04:15.206Z,99.90
2018-04-26T22:06:41.331Z,99.90
2018-04-26T22:09:07.449Z,99.90
2018-04-26T22:11:33.556Z,99.90
2018-04-26T22:13:59.697Z,99.90
2018-04-26T22:16:25.845Z,99.90
2018-04-26T22:18:51.964Z,99.90
2018-04-26T22:21:18.078Z,99.90
2018-04-26T22:23:44.169Z,99.90
2018-04-26T22:26:11.035Z,99.90
2018-04-26T22:28:37.161Z,99.90
2018-04-26T22:31:03.288Z,99.90
2018-04-26T22:33:29.385Z,99.90
2018-04-26T22:35:56.218Z,99.90
2018-04-26T22:38:22.336Z,99.90
2018-04-26T22:40:48.456Z,99.90
2018-04-26T22:43:14.573Z,99.90
2018-04-26T22:45:40.676Z,99.90
2018-04-26T22:48:06.809Z,99.90
2018-04-26T22:50:32.907Z,99.90
2018-04-26T22:52:59.028Z,99.90
2018-04-26T22:55:25.128Z,99.90
2018-04-26T22:57:51.245Z,99.90
2018-04-26T23:00:17.353Z,99.90
2018-04-26T23:02:43.467Z,99.90
2018-04-26T23:05:10.290Z,99.90
2018-04-26T23:07:36.411Z,99.90
2018-04-26T23:10:02.533Z,99.90
2018-04-26T23:12:28.642Z,99.90
2018-04-26T23:14:55.479Z,99.90
2018-04-26T23:17:22.334Z,99.90
2018-04-26T23:19:48.466Z,99.90
2018-04-26T23:22:14.549Z,99.90
2018-04-26T23:24:40.657Z,99.90
2018-04-26T23:27:06.745Z,99.90
2018-04-26T23:29:32.843Z,99.90
2018-04-26T23:31:59.712Z,99.90
2018-04-26T23:34:25.816Z,99.90
2018-04-26T23:36:52.646Z,99.90
2018-04-26T23:39:19.537Z,99.90
2018-04-26T23:41:52.673Z,99.90
2018-04-26T23:44:18.806Z,99.90
2018-04-26T23:46:44.891Z,99.90
2018-04-26T23:49:10.995Z,99.90
2018-04-26T23:51:37.091Z,99.90
2018-04-26T23:54:03.212Z,99.90
2018-04-26T23:56:29.321Z,99.90
2018-04-26T23:58:55.411Z,99.90
